sensor_id;sensor_type;location;lat;lon;timestamp;temperature;humidity
19385;DHT22;9828;54.122;17.974;2024-02-26T01:49:41;4.60;99.90
19385;DHT22;9828;54.122;17.974;2024-02-26T01:55:02;4.60;99.90
19385;DHT22;9828;54.122;17.974;2024-02-26T02:05:46;4.30;99.90
19385;DHT22;9828;54.122;17.974;2024-02-26T02:43:30;4.00;99.90
19385;DHT22;9828;54.122;17.974;2024-02-26T02:48:54;3.90;99.90
19385;DHT22;9828;54.122;17.974;2024-02-26T08:11:09;12.60;79.20
19385;DHT22;9828;54.122;17.974;2024-02-26T08:16:33;13.20;66.90
19385;DHT22;9828;54.122;17.974;2024-02-26T08:21:55;13.10;67.30
19385;DHT22;9828;54.122;17.974;2024-02-26T08:27:17;13.50;66.40
19385;DHT22;9828;54.122;17.974;2024-02-26T08:32:40;13.90;61.60
19385;DHT22;9828;54.122;17.974;2024-02-26T08:54:10;15.20;65.10
19385;DHT22;9828;54.122;17.974;2024-02-26T08:59:31;15.70;52.90
19385;DHT22;9828;54.122;17.974;2024-02-26T09:04:53;16.10;35.40
19385;DHT22;9828;54.122;17.974;2024-02-26T09:10:16;16.20;34.60
19385;DHT22;9828;54.122;17.974;2024-02-26T09:15:37;16.40;33.60
19385;DHT22;9828;54.122;17.974;2024-02-26T09:20:59;16.50;33.00
19385;DHT22;9828;54.122;17.974;2024-02-26T09:26:20;15.80;34.40
19385;DHT22;9828;54.122;17.974;2024-02-26T09:31:41;14.90;38.20
19385;DHT22;9828;54.122;17.974;2024-02-26T09:37:03;14.00;42.40
19385;DHT22;9828;54.122;17.974;2024-02-26T09:42:30;13.50;46.50
19385;DHT22;9828;54.122;17.974;2024-02-26T09:47:52;13.00;60.50
19385;DHT22;9828;54.122;17.974;2024-02-26T09:53:17;12.60;69.60
19385;DHT22;9828;54.122;17.974;2024-02-26T09:58:39;12.30;86.80
19385;DHT22;9828;54.122;17.974;2024-02-26T10:04:03;12.30;85.00
19385;DHT22;9828;54.122;17.974;2024-02-26T10:09:26;12.40;82.10
19385;DHT22;9828;54.122;17.974;2024-02-26T10:14:47;12.80;75.70
19385;DHT22;9828;54.122;17.974;2024-02-26T10:20:16;13.20;64.40
19385;DHT22;9828;54.122;17.974;2024-02-26T10:25:55;13.60;59.50
19385;DHT22;9828;54.122;17.974;2024-02-26T10:31:17;14.10;49.90
19385;DHT22;9828;54.122;17.974;2024-02-26T10:36:39;14.80;45.40
19385;DHT22;9828;54.122;17.974;2024-02-26T10:42:12;15.80;40.30
19385;DHT22;9828;54.122;17.974;2024-02-26T10:47:33;16.60;35.30
19385;DHT22;9828;54.122;17.974;2024-02-26T10:52:55;17.30;30.70
19385;DHT22;9828;54.122;17.974;2024-02-26T10:58:17;17.60;29.60
19385;DHT22;9828;54.122;17.974;2024-02-26T11:03:41;18.10;28.10
19385;DHT22;9828;54.122;17.974;2024-02-26T11:09:05;18.80;27.80
19385;DHT22;9828;54.122;17.974;2024-02-26T11:14:29;18.80;26.20
19385;DHT22;9828;54.122;17.974;2024-02-26T11:46:46;21.80;33.40
19385;DHT22;9828;54.122;17.974;2024-02-26T11:57:39;22.20;23.00
19385;DHT22;9828;54.122;17.974;2024-02-26T12:35:17;23.40;29.10
19385;DHT22;9828;54.122;17.974;2024-02-26T12:40:39;22.70;30.00
19385;DHT22;9828;54.122;17.974;2024-02-26T12:46:03;21.80;31.70
19385;DHT22;9828;54.122;17.974;2024-02-26T14:44:25;13.60;50.70
19385;DHT22;9828;54.122;17.974;2024-02-26T14:55:13;13.00;68.10
19385;DHT22;9828;54.122;17.974;2024-02-26T15:00:34;12.90;53.30
19385;DHT22;9828;54.122;17.974;2024-02-26T15:05:56;12.60;54.90
19385;DHT22;9828;54.122;17.974;2024-02-26T15:11:17;12.50;62.00
19385;DHT22;9828;54.122;17.974;2024-02-26T15:16:39;12.40;76.70
19385;DHT22;9828;54.122;17.974;2024-02-26T15:22:01;12.20;92.30
19385;DHT22;9828;54.122;17.974;2024-02-26T15:27:23;12.00;99.90
19385;DHT22;9828;54.122;17.974;2024-02-26T15:32:48;11.80;99.90
19385;DHT22;9828;54.122;17.974;2024-02-26T16:47:57;10.30;99.90
